createdAt,value
2022-09-10T00:00:59.678Z,77.19
2022-09-10T00:03:27.467Z,75.04
2022-09-10T00:05:54.834Z,74.65
2022-09-10T00:08:22.183Z,75.54
2022-09-10T00:10:51.503Z,75.15
2022-09-10T00:13:20.658Z,73.70
2022-09-10T00:15:51.787Z,73.92
2022-09-10T00:18:22.040Z,73.30
2022-09-10T00:20:51.256Z,71.14
2022-09-10T00:23:19.873Z,70.23
2022-09-10T00:25:47.233Z,71.92
2022-09-10T00:28:14.815Z,70.66
2022-09-10T00:30:43.344Z,69.57
2022-09-10T00:33:10.653Z,70.40
2022-09-10T00:35:38.100Z,70.18
2022-09-10T00:38:06.188Z,69.37
2022-09-10T00:40:33.713Z,68.64
2022-09-10T00:43:01.057Z,69.66
2022-09-10T00:45:29.947Z,68.36
2022-09-10T00:48:03.093Z,70.49
2022-09-10T00:50:32.402Z,69.80
2022-09-10T00:53:01.380Z,68.45
2022-09-10T00:55:28.977Z,68.66
2022-09-10T00:57:59.628Z,68.60
2022-09-10T01:00:27.047Z,68.80
2022-09-10T01:02:55.480Z,68.34
2022-09-10T01:05:23.454Z,67.65
2022-09-10T01:07:52.808Z,67.72
2022-09-10T01:10:26.191Z,68.71
2022-09-10T01:13:31.864Z,68.42
2022-09-10T01:16:25.054Z,68.29
2022-09-10T01:19:14.341Z,68.18
2022-09-10T01:21:57.480Z,66.83
2022-09-10T01:24:36.912Z,66.78
2022-09-10T01:27:28.637Z,67.14
2022-09-10T01:30:03.457Z,66.94
2022-09-10T01:32:47.808Z,67.01
2022-09-10T01:35:21.121Z,66.87
2022-09-10T01:37:52.071Z,66.79
2022-09-10T01:40:19.859Z,67.27
2022-09-10T01:42:47.285Z,67.26
2022-09-10T01:45:15.307Z,67.11
2022-09-10T01:48:16.561Z,67.21
2022-09-10T01:51:16.290Z,66.50
2022-09-10T01:53:54.067Z,68.04
2022-09-10T01:56:35.571Z,67.91
2022-09-10T01:59:28.048Z,66.57
2022-09-10T02:02:02.053Z,67.17
2022-09-10T02:04:29.704Z,69.74
2022-09-10T02:06:57.533Z,68.06
2022-09-10T02:09:24.904Z,67.49
2022-09-10T02:11:53.698Z,66.67
2022-09-10T02:14:21.900Z,68.00
2022-09-10T02:17:00.021Z,68.85
2022-09-10T02:19:27.712Z,71.22
2022-09-10T02:21:56.853Z,70.49
2022-09-10T02:24:25.038Z,68.92
2022-09-10T02:26:52.350Z,71.19
2022-09-10T02:29:19.947Z,73.16
2022-09-10T02:31:47.511Z,74.07
2022-09-10T02:34:16.038Z,72.32
2022-09-10T02:36:45.637Z,72.61
2022-09-10T02:39:14.400Z,73.40
2022-09-10T02:41:41.744Z,75.66
2022-09-10T02:44:09.415Z,76.20
2022-09-10T02:46:38.249Z,76.59
2022-09-10T02:49:06.187Z,75.12
2022-09-10T02:51:36.919Z,72.15
2022-09-10T02:54:04.926Z,73.52
2022-09-10T02:56:32.461Z,73.13
2022-09-10T02:59:00.441Z,74.07
2022-09-10T03:01:28.534Z,74.78
2022-09-10T03:03:58.176Z,72.66
2022-09-10T03:06:26.030Z,72.61
2022-09-10T03:08:55.326Z,73.07
2022-09-10T03:11:27.521Z,70.51
2022-09-10T03:13:55.490Z,71.99
2022-09-10T03:16:24.233Z,72.49
2022-09-10T03:18:52.318Z,72.49
2022-09-10T03:21:21.664Z,72.94
2022-09-10T03:23:50.646Z,72.24
2022-09-10T03:26:20.061Z,70.68
2022-09-10T03:28:47.924Z,69.59
2022-09-10T03:31:15.758Z,68.67
2022-09-10T03:33:43.599Z,68.61
2022-09-10T03:36:13.323Z,69.62
2022-09-10T03:38:42.349Z,70.39
2022-09-10T03:41:09.830Z,69.53
2022-09-10T03:43:38.394Z,70.09
2022-09-10T03:46:06.105Z,70.55
2022-09-10T03:48:35.244Z,69.13
2022-09-10T03:51:03.357Z,69.84
2022-09-10T03:53:30.709Z,69.42
2022-09-10T03:55:58.448Z,68.37
2022-09-10T03:58:26.791Z,68.53
2022-09-10T04:00:54.322Z,67.93
2022-09-10T04:03:23.037Z,67.12
2022-09-10T04:05:51.889Z,69.38
2022-09-10T04:08:20.567Z,71.14
2022-09-10T04:10:48.368Z,69.50
2022-09-10T04:13:16.248Z,68.58
2022-09-10T04:15:46.125Z,67.35
2022-09-10T04:18:13.885Z,71.09
2022-09-10T04:20:42.257Z,69.32
2022-09-10T04:23:09.809Z,69.37
2022-09-10T04:25:37.925Z,69.59
2022-09-10T04:28:05.286Z,68.61
2022-09-10T04:30:33.109Z,70.24
2022-09-10T04:33:01.332Z,68.50
2022-09-10T04:35:29.983Z,69.97
2022-09-10T04:37:58.282Z,68.45
2022-09-10T04:40:27.247Z,70.13
2022-09-10T04:42:54.777Z,68.68
2022-09-10T04:45:22.363Z,71.47
2022-09-10T04:47:50.098Z,70.89
2022-09-10T04:50:17.546Z,71.07
2022-09-10T04:53:00.425Z,69.14
2022-09-10T04:55:28.136Z,70.76
2022-09-10T04:57:55.534Z,70.94
2022-09-10T05:00:23.144Z,70.11
2022-09-10T05:02:50.901Z,70.94
2022-09-10T05:05:18.386Z,70.36
2022-09-10T05:07:45.852Z,71.65
2022-09-10T05:10:13.493Z,70.32
2022-09-10T05:12:41.200Z,72.47
2022-09-10T05:15:09.988Z,72.95
2022-09-10T05:17:37.695Z,70.23
2022-09-10T05:20:07.662Z,68.97
2022-09-10T05:22:40.354Z,68.21
2022-09-10T05:25:09.234Z,68.93
2022-09-10T05:27:37.245Z,68.89
2022-09-10T05:30:06.089Z,67.02
2022-09-10T05:32:35.733Z,66.25
2022-09-10T05:35:05.355Z,67.53
2022-09-10T05:37:36.892Z,67.19
2022-09-10T05:40:06.256Z,69.86
2022-09-10T05:42:34.258Z,68.54
2022-09-10T05:45:01.652Z,69.27
2022-09-10T05:47:31.099Z,65.31
2022-09-10T05:49:59.463Z,64.94
2022-09-10T05:52:26.784Z,64.37
2022-09-10T05:54:56.443Z,63.16
2022-09-10T05:57:24.260Z,65.89
2022-09-10T05:59:52.250Z,64.64
2022-09-10T06:02:23.941Z,63.99
2022-09-10T06:04:52.770Z,64.02
2022-09-10T06:07:20.646Z,65.04
2022-09-10T06:09:48.068Z,63.56
2022-09-10T06:12:18.941Z,66.57
2022-09-10T06:14:46.555Z,63.53
2022-09-10T06:17:13.910Z,65.25
2022-09-10T06:19:41.799Z,63.33
2022-09-10T06:22:11.037Z,62.06
2022-09-10T06:24:39.040Z,65.31
2022-09-10T06:27:06.899Z,65.49
2022-09-10T06:29:36.691Z,67.05
2022-09-10T06:32:04.954Z,64.63
2022-09-10T06:34:32.645Z,62.60
2022-09-10T06:37:01.163Z,61.68
2022-09-10T06:39:29.967Z,62.84
2022-09-10T06:41:58.529Z,63.60
2022-09-10T06:44:29.256Z,64.05
2022-09-10T06:47:39.049Z,64.13
2022-09-10T06:49:44.581Z,67.10
2022-09-10T06:52:11.937Z,65.53
2022-09-10T06:54:39.479Z,65.53
2022-09-10T06:57:11.638Z,66.75
2022-09-10T06:59:38.993Z,63.72
2022-09-10T07:02:06.435Z,64.85
2022-09-10T07:04:34.225Z,64.76
2022-09-10T07:07:02.540Z,66.52
2022-09-10T07:09:29.953Z,67.60
2022-09-10T07:11:57.695Z,67.52
2022-09-10T07:14:25.506Z,69.62
2022-09-10T07:16:53.503Z,69.98
2022-09-10T07:19:22.435Z,69.58
2022-09-10T07:21:50.280Z,70.16
2022-09-10T07:24:19.998Z,70.33
2022-09-10T07:26:48.684Z,72.03
2022-09-10T07:29:18.330Z,72.70
2022-09-10T07:31:47.284Z,72.45
2022-09-10T07:34:15.804Z,73.24
2022-09-10T07:36:43.139Z,70.82
2022-09-10T07:39:10.637Z,74.33
2022-09-10T07:41:38.938Z,73.08
2022-09-10T07:44:06.738Z,71.81
2022-09-10T07:46:34.562Z,72.47
2022-09-10T07:49:02.965Z,72.31
2022-09-10T07:51:33.087Z,73.53
2022-09-10T07:54:00.594Z,72.42
2022-09-10T07:56:32.403Z,72.52
2022-09-10T07:59:02.675Z,72.21
2022-09-10T08:01:31.788Z,72.12
2022-09-10T08:04:00.360Z,70.45
2022-09-10T08:06:28.243Z,68.62
2022-09-10T08:08:56.421Z,66.69
2022-09-10T08:11:24.356Z,66.66
2022-09-10T08:13:52.855Z,67.11
2022-09-10T08:16:23.142Z,67.47
2022-09-10T08:18:51.423Z,67.11
2022-09-10T08:21:19.527Z,66.50
2022-09-10T08:23:51.058Z,65.02
2022-09-10T08:26:18.868Z,62.49
2022-09-10T08:28:47.900Z,62.74
2022-09-10T08:31:16.493Z,60.53
2022-09-10T08:33:48.585Z,59.78
2022-09-10T08:36:17.056Z,57.71
2022-09-10T08:38:45.323Z,60.55
2022-09-10T08:41:35.729Z,60.03
2022-09-10T08:44:10.170Z,62.29
2022-09-10T08:46:43.586Z,60.77
2022-09-10T08:49:30.590Z,61.18
2022-09-10T08:52:37.504Z,60.48
2022-09-10T08:55:17.117Z,58.48
2022-09-10T08:57:55.221Z,58.37
2022-09-10T09:00:28.853Z,58.16
2022-09-10T09:03:00.225Z,58.13
2022-09-10T09:05:28.282Z,58.82
2022-09-10T09:07:57.219Z,58.87
2022-09-10T09:10:25.188Z,58.08
2022-09-10T09:13:15.118Z,56.65
2022-09-10T09:16:07.380Z,56.40
2022-09-10T09:18:56.164Z,55.12
2022-09-10T09:21:31.078Z,56.23
2022-09-10T09:24:14.342Z,54.71
2022-09-10T09:26:42.720Z,53.32
2022-09-10T09:29:17.465Z,55.63
2022-09-10T09:31:50.979Z,53.54
2022-09-10T09:34:23.144Z,53.13
2022-09-10T09:36:52.300Z,55.16
2022-09-10T09:39:35.802Z,53.55
2022-09-10T09:42:25.873Z,52.04
2022-09-10T09:45:18.791Z,50.17
2022-09-10T09:47:46.911Z,48.78
2022-09-10T09:50:14.604Z,48.06
2022-09-10T09:52:41.961Z,48.76
2022-09-10T09:55:35.937Z,48.27
2022-09-10T09:58:21.702Z,48.81
2022-09-10T10:00:49.596Z,46.63
2022-09-10T10:03:27.798Z,46.87
2022-09-10T10:06:08.583Z,47.07
2022-09-10T10:08:41.308Z,45.84
2022-09-10T10:11:08.933Z,46.11
2022-09-10T10:13:44.780Z,44.40
2022-09-10T10:16:26.895Z,44.13
2022-09-10T10:18:54.489Z,45.98
2022-09-10T10:21:31.998Z,44.37
2022-09-10T10:23:59.625Z,43.01
2022-09-10T10:26:31.126Z,44.08
2022-09-10T10:29:17.613Z,43.78
2022-09-10T10:31:46.652Z,43.97
2022-09-10T10:34:16.571Z,44.73
2022-09-10T10:37:01.825Z,44.92
2022-09-10T10:40:04.105Z,45.06
2022-09-10T10:42:37.833Z,44.74
2022-09-10T10:45:39.626Z,43.93
2022-09-10T10:48:25.485Z,43.90
2022-09-10T10:50:53.203Z,43.39
2022-09-10T10:53:23.133Z,43.20
2022-09-10T10:56:13.007Z,43.34
2022-09-10T10:58:53.975Z,43.61
2022-09-10T11:01:24.090Z,44.74
2022-09-10T11:03:54.568Z,44.41
2022-09-10T11:06:27.114Z,43.52
2022-09-10T11:09:08.094Z,44.07
2022-09-10T11:12:04.036Z,44.29
2022-09-10T11:15:00.082Z,42.18
2022-09-10T11:17:40.358Z,42.83
2022-09-10T11:20:28.837Z,42.98
2022-09-10T11:23:18.401Z,43.14
2022-09-10T11:26:21.357Z,43.13
2022-09-10T11:28:54.581Z,42.92
2022-09-10T11:31:38.477Z,41.91
2022-09-10T11:34:20.854Z,43.93
2022-09-10T11:36:52.422Z,44.02
2022-09-10T11:39:30.758Z,43.94
2022-09-10T11:41:58.984Z,43.22
2022-09-10T11:44:57.492Z,43.13
2022-09-10T11:47:38.570Z,43.59
2022-09-10T11:50:18.782Z,40.70
2022-09-10T11:52:46.387Z,42.49
2022-09-10T11:55:14.818Z,41.46
2022-09-10T11:58:03.202Z,42.21
2022-09-10T12:00:30.977Z,41.18
2022-09-10T12:03:08.164Z,40.88
2022-09-10T12:05:48.334Z,41.08
2022-09-10T12:08:32.733Z,40.39
2022-09-10T12:11:31.400Z,39.86
2022-09-10T12:13:59.030Z,39.79
2022-09-10T12:16:38.484Z,38.71
2022-09-10T12:19:08.811Z,39.67
2022-09-10T12:21:41.497Z,38.86
2022-09-10T12:24:39.980Z,38.55
2022-09-10T12:27:07.797Z,39.55
2022-09-10T12:29:40.581Z,39.08
2022-09-10T12:32:12.359Z,38.96
2022-09-10T12:34:40.179Z,38.86
2022-09-10T12:37:19.137Z,38.81
2022-09-10T12:39:46.874Z,38.65
2022-09-10T12:42:25.671Z,39.42
2022-09-10T12:44:54.398Z,40.36
2022-09-10T12:47:29.784Z,39.00
2022-09-10T12:49:58.602Z,38.58
2022-09-10T12:52:35.092Z,39.46
2022-09-10T12:55:37.258Z,38.65
2022-09-10T12:58:26.545Z,38.52
2022-09-10T13:00:54.055Z,38.36
2022-09-10T13:03:24.582Z,38.87
2022-09-10T13:05:54.261Z,39.09
2022-09-10T13:08:32.726Z,39.57
2022-09-10T13:10:59.963Z,39.54
2022-09-10T13:13:39.819Z,39.20
2022-09-10T13:16:12.276Z,40.24
2022-09-10T13:18:42.086Z,40.17
2022-09-10T13:21:24.711Z,40.76
2022-09-10T13:23:55.669Z,40.86
2022-09-10T13:26:26.018Z,40.36
2022-09-10T13:28:57.026Z,41.64
2022-09-10T13:31:27.037Z,40.70
2022-09-10T13:33:56.229Z,40.68
2022-09-10T13:36:42.070Z,40.57
2022-09-10T13:39:23.734Z,41.22
2022-09-10T13:42:12.344Z,41.46
2022-09-10T13:44:56.514Z,40.93
2022-09-10T13:47:47.160Z,41.06
2022-09-10T13:50:15.886Z,41.00
2022-09-10T13:52:45.195Z,39.31
2022-09-10T13:55:38.890Z,38.98
2022-09-10T13:58:12.162Z,38.91
2022-09-10T14:00:42.197Z,39.10
2022-09-10T14:03:19.706Z,39.80
2022-09-10T14:05:49.256Z,39.11
2022-09-10T14:08:30.525Z,39.96
2022-09-10T14:11:04.717Z,40.16
2022-09-10T14:13:54.229Z,38.94
2022-09-10T14:16:30.365Z,38.51
2022-09-10T14:18:59.272Z,39.09
2022-09-10T14:21:29.351Z,39.62
2022-09-10T14:23:59.048Z,38.67
2022-09-10T14:26:31.364Z,38.95
2022-09-10T14:29:01.578Z,37.91
2022-09-10T14:31:31.605Z,38.60
2022-09-10T14:33:59.402Z,38.88
2022-09-10T14:36:29.668Z,38.39
2022-09-10T14:39:20.151Z,38.03
2022-09-10T14:41:47.831Z,38.60
2022-09-10T14:44:20.272Z,39.48
2022-09-10T14:46:57.284Z,38.72
2022-09-10T14:49:27.276Z,38.02
2022-09-10T14:51:58.488Z,37.80
2022-09-10T14:54:27.408Z,38.79
2022-09-10T14:57:04.429Z,37.91
2022-09-10T14:59:36.347Z,37.78
2022-09-10T15:02:08.196Z,38.36
2022-09-10T15:04:36.012Z,37.93
2022-09-10T15:07:03.403Z,37.28
2022-09-10T15:09:31.381Z,36.94
2022-09-10T15:12:09.532Z,37.28
2022-09-10T15:14:36.890Z,38.09
2022-09-10T15:17:04.668Z,38.19
2022-09-10T15:19:32.056Z,38.47
2022-09-10T15:21:59.709Z,38.24
2022-09-10T15:24:28.411Z,37.63
2022-09-10T15:26:56.472Z,37.26
2022-09-10T15:29:24.092Z,37.50
2022-09-10T15:31:51.690Z,37.34
2022-09-10T15:34:19.391Z,37.09
2022-09-10T15:36:46.766Z,37.87
2022-09-10T15:39:15.186Z,37.33
2022-09-10T15:41:43.530Z,37.87
2022-09-10T15:44:11.072Z,37.82
2022-09-10T15:46:42.350Z,37.99
2022-09-10T15:49:09.719Z,38.17
2022-09-10T15:51:37.124Z,37.36
2022-09-10T15:54:05.477Z,37.82
2022-09-10T15:56:33.110Z,37.44
2022-09-10T15:59:00.912Z,38.68
2022-09-10T16:01:29.072Z,38.63
2022-09-10T16:04:03.434Z,38.76
2022-09-10T16:06:37.845Z,38.94
2022-09-10T16:09:10.638Z,38.79
2022-09-10T16:11:39.016Z,39.48
2022-09-10T16:14:08.204Z,39.52
2022-09-10T16:16:35.742Z,39.54
2022-09-10T16:19:03.453Z,40.02
2022-09-10T16:21:32.250Z,40.06
2022-09-10T16:24:00.291Z,39.71
2022-09-10T16:26:35.280Z,40.52
2022-09-10T16:29:06.354Z,41.56
2022-09-10T16:31:35.490Z,41.43
2022-09-10T16:34:04.627Z,42.19
2022-09-10T16:36:33.085Z,41.34
2022-09-10T16:39:03.932Z,42.13
2022-09-10T16:41:33.029Z,42.56
2022-09-10T16:44:00.776Z,42.74
2022-09-10T16:46:28.534Z,43.06
2022-09-10T16:48:56.601Z,42.92
2022-09-10T16:51:24.521Z,42.83
2022-09-10T16:54:02.548Z,42.85
2022-09-10T16:56:34.829Z,43.08
2022-09-10T16:59:02.159Z,44.19
2022-09-10T17:01:31.161Z,43.58
2022-09-10T17:03:58.829Z,44.14
2022-09-10T17:06:27.174Z,44.08
2022-09-10T17:08:55.825Z,43.31
2022-09-10T17:11:26.086Z,45.00
2022-09-10T17:13:54.220Z,44.59
2022-09-10T17:16:23.501Z,46.15
2022-09-10T17:19:01.319Z,45.77
2022-09-10T17:21:32.058Z,45.63
2022-09-10T17:23:59.906Z,45.41
2022-09-10T17:26:27.250Z,45.43
2022-09-10T17:29:09.888Z,45.85
2022-09-10T17:31:37.484Z,45.72
2022-09-10T17:34:05.206Z,45.79
2022-09-10T17:36:32.631Z,45.07
2022-09-10T17:39:00.274Z,44.68
2022-09-10T17:41:28.208Z,44.45
2022-09-10T17:43:55.645Z,42.68
2022-09-10T17:46:24.069Z,43.48
2022-09-10T17:48:51.976Z,42.99
2022-09-10T17:51:23.808Z,42.93
2022-09-10T17:53:51.694Z,42.64
2022-09-10T17:56:19.481Z,43.80
2022-09-10T17:58:49.916Z,43.46
2022-09-10T18:01:23.559Z,43.98
2022-09-10T18:03:51.980Z,43.13
2022-09-10T18:06:19.520Z,43.69
2022-09-10T18:08:46.927Z,43.34
2022-09-10T18:11:16.456Z,43.82
2022-09-10T18:13:44.555Z,44.40
2022-09-10T18:16:14.666Z,44.24
2022-09-10T18:18:44.084Z,44.22
2022-09-10T18:21:14.669Z,45.61
2022-09-10T18:23:44.281Z,45.12
2022-09-10T18:26:15.928Z,45.39
2022-09-10T18:28:44.111Z,45.45
2022-09-10T18:31:11.558Z,45.91
2022-09-10T18:33:39.706Z,47.00
2022-09-10T18:36:14.931Z,46.97
2022-09-10T18:38:42.540Z,46.29
2022-09-10T18:41:26.910Z,45.72
2022-09-10T18:43:56.549Z,48.60
2022-09-10T18:46:24.445Z,48.04
2022-09-10T18:48:52.250Z,47.53
2022-09-10T18:51:20.716Z,47.73
2022-09-10T18:53:49.647Z,48.34
2022-09-10T18:56:18.306Z,48.67
2022-09-10T18:58:53.497Z,49.25
2022-09-10T19:01:21.215Z,49.66
2022-09-10T19:03:48.761Z,49.74
2022-09-10T19:06:26.409Z,50.17
2022-09-10T19:08:55.387Z,50.53
2022-09-10T19:11:24.397Z,50.76
2022-09-10T19:13:53.931Z,51.26
2022-09-10T19:16:23.330Z,51.06
2022-09-10T19:18:51.653Z,51.13
2022-09-10T19:21:20.289Z,51.05
2022-09-10T19:23:49.538Z,50.81
2022-09-10T19:26:18.360Z,50.83
2022-09-10T19:28:45.770Z,50.82
2022-09-10T19:31:15.210Z,50.42
2022-09-10T19:33:42.610Z,51.31
2022-09-10T19:36:11.169Z,51.52
2022-09-10T19:38:39.160Z,51.80
2022-09-10T19:41:06.492Z,51.78
2022-09-10T19:43:34.463Z,52.24
2022-09-10T19:46:05.535Z,51.92
2022-09-10T19:48:33.343Z,52.24
2022-09-10T19:51:02.296Z,52.62
2022-09-10T19:53:31.440Z,52.81
2022-09-10T19:56:09.254Z,52.95
2022-09-10T19:58:37.440Z,52.83
2022-09-10T20:01:15.170Z,53.00
2022-09-10T20:03:47.101Z,52.33
2022-09-10T20:06:15.826Z,53.59
2022-09-10T20:08:44.459Z,54.12
2022-09-10T20:11:20.227Z,54.27
2022-09-10T20:13:48.242Z,53.50
2022-09-10T20:16:16.196Z,53.71
2022-09-10T20:18:43.603Z,52.57
2022-09-10T20:21:16.605Z,54.90
2022-09-10T20:23:46.315Z,53.81
2022-09-10T20:26:18.614Z,53.98
2022-09-10T20:28:50.206Z,53.72
2022-09-10T20:31:17.874Z,55.63
2022-09-10T20:33:45.429Z,56.25
2022-09-10T20:36:15.132Z,55.55
2022-09-10T20:38:43.375Z,54.21
2022-09-10T20:41:12.108Z,56.50
2022-09-10T20:43:39.865Z,56.64
2022-09-10T20:46:14.055Z,56.26
2022-09-10T20:48:43.932Z,55.22
2022-09-10T20:51:14.717Z,54.68
2022-09-10T20:53:43.425Z,54.99
2022-09-10T20:56:12.157Z,54.73
2022-09-10T20:58:40.234Z,54.73
2022-09-10T21:01:10.986Z,54.60
2022-09-10T21:03:38.916Z,54.98
2022-09-10T21:06:08.269Z,55.08
2022-09-10T21:08:39.681Z,53.84
2022-09-10T21:11:08.776Z,53.21
2022-09-10T21:13:36.439Z,54.52
2022-09-10T21:16:09.003Z,54.90
2022-09-10T21:18:37.562Z,55.23
2022-09-10T21:21:08.984Z,55.57
2022-09-10T21:23:41.724Z,55.99
2022-09-10T21:26:09.032Z,55.23
2022-09-10T21:28:36.612Z,54.98
2022-09-10T21:31:05.076Z,54.80
2022-09-10T21:33:33.467Z,55.66
2022-09-10T21:36:06.415Z,55.98
2022-09-10T21:38:37.954Z,55.77
2022-09-10T21:41:06.542Z,55.50
2022-09-10T21:43:34.776Z,55.47
2022-09-10T21:46:02.502Z,56.11
2022-09-10T21:48:31.173Z,55.63
2022-09-10T21:51:05.214Z,55.38
2022-09-10T21:53:33.536Z,55.42
2022-09-10T21:56:01.715Z,55.72
2022-09-10T21:58:30.643Z,55.78
2022-09-10T22:00:58.425Z,55.93
2022-09-10T22:03:27.074Z,55.48
2022-09-10T22:06:07.379Z,55.43
2022-09-10T22:08:35.404Z,55.05
2022-09-10T22:11:12.246Z,54.87
2022-09-10T22:13:43.528Z,55.35
2022-09-10T22:16:14.766Z,55.45
2022-09-10T22:18:42.554Z,54.56
2022-09-10T22:21:10.026Z,55.71
2022-09-10T22:23:38.305Z,55.69
2022-09-10T22:26:08.595Z,55.94
2022-09-10T22:28:36.143Z,56.29
2022-09-10T22:31:11.758Z,56.44
2022-09-10T22:33:43.755Z,56.22
2022-09-10T22:36:21.345Z,56.34
2022-09-10T22:38:56.439Z,56.29
2022-09-10T22:41:23.798Z,56.92
2022-09-10T22:43:51.673Z,57.99
2022-09-10T22:46:19.130Z,57.03
2022-09-10T22:48:46.663Z,58.21
2022-09-10T22:51:16.036Z,58.85
2022-09-10T22:53:44.015Z,58.09
2022-09-10T22:56:13.390Z,57.80
2022-09-10T22:58:41.131Z,57.95
2022-09-10T23:01:15.555Z,57.45
2022-09-10T23:03:43.570Z,57.23
2022-09-10T23:06:18.155Z,57.14
2022-09-10T23:08:47.230Z,57.24
2022-09-10T23:11:19.446Z,57.56
2022-09-10T23:13:57.405Z,57.61
2022-09-10T23:16:29.362Z,57.90
2022-09-10T23:18:57.903Z,58.28
2022-09-10T23:21:25.962Z,57.83
2022-09-10T23:23:56.090Z,57.97
2022-09-10T23:26:23.821Z,58.18
2022-09-10T23:28:51.237Z,58.06
2022-09-10T23:31:20.572Z,57.76
2022-09-10T23:33:55.670Z,57.72
2022-09-10T23:36:23.083Z,58.06
2022-09-10T23:38:50.758Z,58.44
2022-09-10T23:41:18.093Z,58.40
2022-09-10T23:43:45.472Z,58.45
2022-09-10T23:46:13.353Z,58.50
2022-09-10T23:48:42.665Z,58.94
2022-09-10T23:51:11.793Z,58.61
2022-09-10T23:53:39.947Z,58.79
2022-09-10T23:56:07.377Z,61.08
2022-09-10T23:58:35.072Z,59.31
